createdAt,value
2023-05-23T00:01:22.832Z,98090.31
2023-05-23T00:03:49.648Z,98094.84
2023-05-23T00:06:21.543Z,98087.81
2023-05-23T00:08:48.749Z,98088.75
2023-05-23T00:11:15.752Z,98094.06
2023-05-23T00:13:42.520Z,98098.25
2023-05-23T00:16:09.717Z,98094.66
2023-05-23T00:18:37.625Z,98089.38
2023-05-23T00:21:04.442Z,98097.97
2023-05-23T00:23:31.073Z,98089.06
2023-05-23T00:25:58.793Z,98088.50
2023-05-23T00:28:25.935Z,98097.66
2023-05-23T00:30:52.749Z,98097.78
2023-05-23T00:33:22.582Z,98107.31
2023-05-23T00:35:49.417Z,98101.09
2023-05-23T00:38:17.083Z,98106.25
2023-05-23T00:40:43.826Z,98109.53
2023-05-23T00:43:10.636Z,98107.66
2023-05-23T00:45:37.287Z,98104.06
2023-05-23T00:48:04.668Z,98107.97
2023-05-23T00:50:31.441Z,98106.25
2023-05-23T00:53:00.704Z,98102.66
2023-05-23T00:55:28.625Z,98109.69
2023-05-23T00:57:58.102Z,98113.13
2023-05-23T01:00:28.248Z,98111.53
2023-05-23T01:02:55.213Z,98119.53
2023-05-23T01:05:25.377Z,98113.56
2023-05-23T01:07:52.855Z,98114.50
2023-05-23T01:10:23.757Z,98120.44
2023-05-23T01:13:30.517Z,98120.56
2023-05-23T01:16:12.264Z,98124.16
2023-05-23T01:19:10.638Z,98122.44
2023-05-23T01:21:39.032Z,98120.84
2023-05-23T01:24:36.611Z,98121.34
2023-05-23T01:27:09.016Z,98122.72
2023-05-23T01:29:40.485Z,98115.72
2023-05-23T01:32:11.875Z,98115.16
2023-05-23T01:34:40.892Z,98120.91
2023-05-23T01:37:11.995Z,98116.75
2023-05-23T01:39:39.260Z,98131.72
2023-05-23T01:42:07.980Z,98124.22
2023-05-23T01:44:35.418Z,98132.81
2023-05-23T01:47:08.190Z,98133.94
2023-05-23T01:49:37.038Z,98132.00
2023-05-23T01:52:05.143Z,98137.25
2023-05-23T01:54:35.557Z,98131.38
2023-05-23T01:57:03.067Z,98131.38
2023-05-23T01:59:29.784Z,98129.69
2023-05-23T02:01:56.683Z,98128.25
2023-05-23T02:04:23.358Z,98121.06
2023-05-23T02:06:50.016Z,98122.09
2023-05-23T02:09:17.023Z,98131.66
2023-05-23T02:11:43.898Z,98132.53
2023-05-23T02:14:11.466Z,98135.34
2023-05-23T02:16:38.278Z,98128.81
2023-05-23T02:19:05.042Z,98128.75
2023-05-23T02:21:34.156Z,98128.09
2023-05-23T02:24:01.779Z,98128.09
2023-05-23T02:26:28.473Z,98134.13
2023-05-23T02:28:55.173Z,98140.69
2023-05-23T02:31:22.371Z,98144.25
2023-05-23T02:33:49.098Z,98146.13
2023-05-23T02:36:15.812Z,98149.41
2023-05-23T02:38:42.526Z,98154.91
2023-05-23T02:41:09.202Z,98157.91
2023-05-23T02:43:36.009Z,98162.59
2023-05-23T02:46:02.628Z,98159.00
2023-05-23T02:48:29.423Z,98150.84
2023-05-23T02:50:56.465Z,98161.56
2023-05-23T02:53:23.139Z,98163.28
2023-05-23T02:55:49.753Z,98170.28
2023-05-23T02:58:16.544Z,98170.72
2023-05-23T03:00:44.181Z,98174.00
2023-05-23T03:03:12.170Z,98171.94
2023-05-23T03:05:39.443Z,98165.94
2023-05-23T03:08:07.197Z,98175.00
2023-05-23T03:10:34.069Z,98166.72
2023-05-23T03:13:01.046Z,98174.31
2023-05-23T03:15:27.809Z,98170.28
2023-05-23T03:17:54.624Z,98165.78
2023-05-23T03:20:21.374Z,98166.72
2023-05-23T03:22:48.484Z,98164.06
2023-05-23T03:25:16.510Z,98163.28
2023-05-23T03:27:43.352Z,98161.41
2023-05-23T03:30:11.076Z,98158.00
2023-05-23T03:32:37.915Z,98157.84
2023-05-23T03:35:05.078Z,98155.97
2023-05-23T03:37:31.863Z,98161.56
2023-05-23T03:39:58.692Z,98165.16
2023-05-23T03:42:25.563Z,98172.16
2023-05-23T03:44:52.312Z,98179.44
2023-05-23T03:47:19.093Z,98175.72
2023-05-23T03:49:46.189Z,98176.16
2023-05-23T03:52:13.033Z,98174.16
2023-05-23T03:54:39.803Z,98161.94
2023-05-23T03:57:07.206Z,98178.31
2023-05-23T03:59:34.391Z,98177.31
2023-05-23T04:02:01.570Z,98181.75
2023-05-23T04:04:29.836Z,98179.59
2023-05-23T04:06:56.966Z,98179.31
2023-05-23T04:09:24.144Z,98181.81
2023-05-23T04:11:52.254Z,98184.41
2023-05-23T04:14:22.744Z,98182.31
2023-05-23T04:16:49.583Z,98182.03
2023-05-23T04:19:17.481Z,98185.44
2023-05-23T04:21:44.269Z,98187.19
2023-05-23T04:24:11.355Z,98191.84
2023-05-23T04:26:37.931Z,98189.63
2023-05-23T04:29:06.538Z,98192.47
2023-05-23T04:31:34.461Z,98194.47
2023-05-23T04:34:02.477Z,98188.09
2023-05-23T04:36:30.394Z,98197.47
2023-05-23T04:38:57.431Z,98195.63
2023-05-23T04:41:24.450Z,98195.97
2023-05-23T04:43:54.697Z,98199.53
2023-05-23T04:46:27.425Z,98198.63
2023-05-23T04:48:55.344Z,98203.63
2023-05-23T04:51:22.499Z,98210.22
2023-05-23T04:53:50.933Z,98202.19
2023-05-23T04:56:19.396Z,98210.91
2023-05-23T04:58:48.234Z,98200.94
2023-05-23T05:01:15.019Z,98210.16
2023-05-23T05:03:41.748Z,98209.38
2023-05-23T05:06:08.563Z,98218.22
2023-05-23T05:08:35.140Z,98214.53
2023-05-23T05:11:01.764Z,98215.00
2023-05-23T05:13:28.515Z,98220.63
2023-05-23T05:15:55.254Z,98229.97
2023-05-23T05:18:22.028Z,98225.41
2023-05-23T05:20:48.762Z,98233.69
2023-05-23T05:23:16.231Z,98248.91
2023-05-23T05:25:42.993Z,98259.63
2023-05-23T05:28:09.689Z,98254.97
2023-05-23T05:30:36.752Z,98264.97
2023-05-23T05:33:04.598Z,98271.09
2023-05-23T05:35:32.614Z,98272.53
2023-05-23T05:38:00.139Z,98275.28
2023-05-23T05:40:27.198Z,98269.50
2023-05-23T05:42:54.128Z,98273.72
2023-05-23T05:45:20.791Z,98279.03
2023-05-23T05:47:47.621Z,98273.09
2023-05-23T05:50:14.387Z,98275.34
2023-05-23T05:52:42.548Z,98280.84
2023-05-23T05:55:13.914Z,98280.06
2023-05-23T05:57:41.489Z,98268.28
2023-05-23T06:00:13.697Z,98272.66
2023-05-23T06:02:41.644Z,98284.69
2023-05-23T06:05:12.353Z,98271.19
2023-05-23T06:07:43.102Z,98266.53
2023-05-23T06:10:12.943Z,98267.19
2023-05-23T06:12:39.952Z,98278.31
2023-05-23T06:15:07.332Z,98276.59
2023-05-23T06:17:33.990Z,98275.44
2023-05-23T06:20:00.793Z,98279.78
2023-05-23T06:22:27.540Z,98278.31
2023-05-23T06:24:54.110Z,98275.53
2023-05-23T06:27:20.667Z,98273.16
2023-05-23T06:29:47.260Z,98279.00
2023-05-23T06:32:13.986Z,98276.22
2023-05-23T06:34:40.802Z,98275.56
2023-05-23T06:37:07.545Z,98278.94
2023-05-23T06:39:34.144Z,98282.53
2023-05-23T06:42:01.551Z,98274.56
2023-05-23T06:44:28.281Z,98265.75
2023-05-23T06:46:57.694Z,98274.81
2023-05-23T06:49:25.064Z,98273.66
2023-05-23T06:51:52.723Z,98279.78
2023-05-23T06:54:19.862Z,98281.09
2023-05-23T06:56:46.790Z,98289.94
2023-05-23T06:59:13.510Z,98292.38
2023-05-23T07:01:40.348Z,98294.84
2023-05-23T07:04:07.130Z,98296.34
2023-05-23T07:06:36.495Z,98294.75
2023-05-23T07:09:04.181Z,98301.50
2023-05-23T07:11:30.986Z,98306.00
2023-05-23T07:13:57.854Z,98306.00
2023-05-23T07:16:24.632Z,98303.81
2023-05-23T07:18:51.560Z,98297.91
2023-05-23T07:21:18.515Z,98298.13
2023-05-23T07:23:45.152Z,98299.69
2023-05-23T07:26:11.888Z,98297.84
2023-05-23T07:28:38.511Z,98303.97
2023-05-23T07:31:05.174Z,98286.84
2023-05-23T07:33:34.651Z,98300.44
2023-05-23T07:36:01.611Z,98296.78
2023-05-23T07:38:28.341Z,98297.84
2023-05-23T07:41:06.675Z,98296.88
2023-05-23T07:43:38.007Z,98300.69
2023-05-23T07:46:04.677Z,98304.84
2023-05-23T07:48:32.408Z,98305.34
2023-05-23T07:50:59.354Z,98313.81
2023-05-23T07:53:26.439Z,98320.72
2023-05-23T07:55:53.260Z,98324.75
2023-05-23T07:58:19.932Z,98317.16
2023-05-23T08:00:46.645Z,98320.03
2023-05-23T08:03:13.672Z,98323.72
2023-05-23T08:05:40.534Z,98317.59
2023-05-23T08:08:07.249Z,98316.47
2023-05-23T08:10:33.960Z,98316.59
2023-05-23T08:13:01.148Z,98323.59
2023-05-23T08:15:28.961Z,98325.34
2023-05-23T08:17:57.455Z,98328.41
2023-05-23T08:20:30.955Z,98329.56
2023-05-23T08:23:01.799Z,98325.47
2023-05-23T08:25:30.684Z,98330.66
2023-05-23T08:28:00.160Z,98330.50
2023-05-23T08:30:27.984Z,98333.34
2023-05-23T08:32:56.107Z,98338.66
2023-05-23T08:35:23.428Z,98332.91
2023-05-23T08:37:51.085Z,98340.47
2023-05-23T08:40:22.400Z,98336.34
2023-05-23T08:42:50.839Z,98339.94
2023-05-23T08:45:18.632Z,98343.94
2023-05-23T08:47:46.816Z,98349.16
2023-05-23T08:50:15.372Z,98345.78
2023-05-23T08:52:45.954Z,98348.41
2023-05-23T08:55:13.087Z,98349.06
2023-05-23T08:57:43.963Z,98347.00
2023-05-23T09:00:17.011Z,98344.22
2023-05-23T09:02:45.164Z,98343.88
2023-05-23T09:05:12.553Z,98342.06
2023-05-23T09:07:39.925Z,98339.66
2023-05-23T09:10:08.921Z,98342.84
2023-05-23T09:12:37.310Z,98343.25
2023-05-23T09:15:10.942Z,98340.03
2023-05-23T09:17:40.560Z,98346.34
2023-05-23T09:20:15.294Z,98355.41
2023-05-23T09:22:47.665Z,98360.56
2023-05-23T09:25:14.874Z,98362.69
2023-05-23T09:27:44.216Z,98366.28
2023-05-23T09:30:13.302Z,98359.41
2023-05-23T09:32:40.190Z,98366.75
2023-05-23T09:35:12.405Z,98369.38
2023-05-23T09:37:41.105Z,98369.25
2023-05-23T09:40:11.072Z,98374.38
2023-05-23T09:42:46.567Z,98370.53
2023-05-23T09:45:14.596Z,98374.47
2023-05-23T09:47:59.599Z,98374.78
2023-05-23T09:50:32.271Z,98371.38
2023-05-23T09:52:59.639Z,98375.22
2023-05-23T09:55:26.635Z,98374.59
2023-05-23T09:57:57.072Z,98375.22
2023-05-23T10:00:25.537Z,98380.16
2023-05-23T10:03:14.570Z,98371.81
2023-05-23T10:05:45.716Z,98371.63
2023-05-23T10:08:23.826Z,98370.97
2023-05-23T10:10:56.397Z,98373.06
2023-05-23T10:13:26.873Z,98376.16
2023-05-23T10:16:23.488Z,98382.25
2023-05-23T10:18:58.037Z,98376.34
2023-05-23T10:21:32.194Z,98376.63
2023-05-23T10:24:00.790Z,98387.50
2023-05-23T10:26:28.204Z,98377.97
2023-05-23T10:28:56.300Z,98378.63
2023-05-23T10:31:24.969Z,98375.13
2023-05-23T10:34:01.450Z,98380.84
2023-05-23T10:36:40.786Z,98381.81
2023-05-23T10:39:22.770Z,98385.50
2023-05-23T10:41:56.157Z,98381.91
2023-05-23T10:44:30.149Z,98385.75
2023-05-23T10:47:01.852Z,98382.94
2023-05-23T10:49:51.921Z,98388.91
2023-05-23T10:52:18.860Z,98389.91
2023-05-23T10:54:54.378Z,98385.78
2023-05-23T10:57:22.854Z,98386.81
2023-05-23T10:59:52.448Z,98397.59
2023-05-23T11:02:29.458Z,98393.19
2023-05-23T11:05:18.779Z,98389.22
2023-05-23T11:07:45.513Z,98397.28
2023-05-23T11:10:17.093Z,98396.13
2023-05-23T11:12:45.052Z,98400.09
2023-05-23T11:15:17.377Z,98398.84
2023-05-23T11:17:55.071Z,98408.16
2023-05-23T11:20:27.565Z,98420.78
2023-05-23T11:23:08.310Z,98403.44
2023-05-23T11:25:45.973Z,98408.41
2023-05-23T11:28:13.706Z,98421.81
2023-05-23T11:30:41.522Z,98419.00
2023-05-23T11:33:13.580Z,98418.84
2023-05-23T11:35:45.421Z,98420.47
2023-05-23T11:38:13.996Z,98428.16
2023-05-23T11:40:42.542Z,98437.28
2023-05-23T11:43:11.746Z,98436.22
2023-05-23T11:45:39.262Z,98431.47
2023-05-23T11:48:10.135Z,98438.47
2023-05-23T11:50:48.615Z,98432.38
2023-05-23T11:53:21.066Z,98424.69
2023-05-23T11:55:53.448Z,98445.44
2023-05-23T11:58:27.159Z,98449.19
2023-05-23T12:01:00.837Z,98438.56
2023-05-23T12:03:27.672Z,98444.16
2023-05-23T12:05:58.884Z,98447.75
2023-05-23T12:08:25.748Z,98440.81
2023-05-23T12:10:54.263Z,98437.81
2023-05-23T12:13:24.694Z,98447.34
2023-05-23T12:15:56.315Z,98452.75
2023-05-23T12:18:23.387Z,98454.13
2023-05-23T12:20:51.662Z,98448.66
2023-05-23T12:23:20.481Z,98449.59
2023-05-23T12:25:50.902Z,98455.78
2023-05-23T12:28:17.717Z,98466.78
2023-05-23T12:30:44.638Z,98468.59
2023-05-23T12:33:12.163Z,98471.69
2023-05-23T12:35:43.164Z,98480.91
2023-05-23T12:38:09.994Z,98479.91
2023-05-23T12:40:36.670Z,98480.53
2023-05-23T12:43:03.364Z,98482.84
2023-05-23T12:45:35.131Z,98492.78
2023-05-23T12:48:02.551Z,98497.50
2023-05-23T12:50:29.886Z,98489.13
2023-05-23T12:52:56.916Z,98502.97
2023-05-23T12:55:23.708Z,98496.34
2023-05-23T12:57:50.493Z,98491.66
2023-05-23T13:00:17.973Z,98500.66
2023-05-23T13:02:44.693Z,98502.78
2023-05-23T13:05:11.681Z,98502.53
2023-05-23T13:07:38.439Z,98502.53
2023-05-23T13:10:05.898Z,98507.59
2023-05-23T13:12:34.385Z,98511.38
2023-05-23T13:15:01.225Z,98512.34
2023-05-23T13:17:28.113Z,98505.28
2023-05-23T13:19:54.927Z,98514.72
2023-05-23T13:22:21.706Z,98509.09
2023-05-23T13:24:48.384Z,98505.88
2023-05-23T13:27:15.295Z,98518.16
2023-05-23T13:29:42.338Z,98518.28
2023-05-23T13:32:09.026Z,98524.75
2023-05-23T13:34:37.811Z,98525.63
2023-05-23T13:37:05.784Z,98528.34
2023-05-23T13:39:32.775Z,98534.00
2023-05-23T13:41:59.662Z,98531.69
2023-05-23T13:44:26.522Z,98534.41
2023-05-23T13:46:53.235Z,98540.53
2023-05-23T13:49:19.942Z,98537.91
2023-05-23T13:51:46.570Z,98538.09
2023-05-23T13:54:14.092Z,98545.03
2023-05-23T13:56:41.170Z,98538.22
2023-05-23T13:59:07.766Z,98538.63
2023-05-23T14:01:34.432Z,98555.66
2023-05-23T14:04:01.309Z,98567.06
2023-05-23T14:06:28.023Z,98559.25
2023-05-23T14:08:54.709Z,98563.50
2023-05-23T14:11:21.294Z,98569.88
2023-05-23T14:13:48.029Z,98577.63
2023-05-23T14:16:14.890Z,98573.06
2023-05-23T14:18:41.747Z,98576.09
2023-05-23T14:21:08.408Z,98572.16
2023-05-23T14:23:35.115Z,98573.38
2023-05-23T14:26:02.001Z,98584.88
2023-05-23T14:28:28.680Z,98577.75
2023-05-23T14:30:56.200Z,98588.19
2023-05-23T14:33:23.109Z,98589.03
2023-05-23T14:35:50.143Z,98590.03
2023-05-23T14:38:17.154Z,98592.84
2023-05-23T14:40:44.604Z,98588.00
2023-05-23T14:43:11.763Z,98590.22
2023-05-23T14:45:38.908Z,98601.63
2023-05-23T14:48:06.293Z,98604.22
2023-05-23T14:50:32.914Z,98596.31
2023-05-23T14:53:00.029Z,98604.91
2023-05-23T14:55:26.829Z,98598.19
2023-05-23T14:57:53.574Z,98610.47
2023-05-23T15:00:20.765Z,98603.84
2023-05-23T15:02:47.715Z,98605.38
2023-05-23T15:05:15.725Z,98606.47
2023-05-23T15:07:42.405Z,98607.22
2023-05-23T15:10:09.146Z,98613.53
2023-05-23T15:12:35.838Z,98617.94
2023-05-23T15:15:05.552Z,98610.31
2023-05-23T15:17:35.363Z,98629.53
2023-05-23T15:20:06.154Z,98621.78
2023-05-23T15:22:39.444Z,98622.75
2023-05-23T15:25:08.610Z,98610.47
2023-05-23T15:27:35.591Z,98618.31
2023-05-23T15:30:03.471Z,98618.50
2023-05-23T15:32:30.398Z,98615.88
2023-05-23T15:34:57.096Z,98617.81
2023-05-23T15:37:23.951Z,98620.56
2023-05-23T15:39:51.041Z,98618.94
2023-05-23T15:42:17.715Z,98621.09
2023-05-23T15:44:44.498Z,98629.88
2023-05-23T15:47:11.509Z,98626.38
2023-05-23T15:49:38.236Z,98628.94
2023-05-23T15:52:05.197Z,98631.66
2023-05-23T15:54:31.817Z,98626.03
2023-05-23T15:56:58.659Z,98623.72
2023-05-23T15:59:25.510Z,98635.88
2023-05-23T16:01:52.252Z,98635.03
2023-05-23T16:04:19.187Z,98641.00
2023-05-23T16:06:45.947Z,98641.06
2023-05-23T16:09:12.680Z,98642.97
2023-05-23T16:11:39.479Z,98645.88
2023-05-23T16:14:06.427Z,98640.38
2023-05-23T16:16:33.173Z,98641.41
2023-05-23T16:18:59.987Z,98648.28
2023-05-23T16:21:26.672Z,98642.72
2023-05-23T16:23:53.466Z,98647.28
2023-05-23T16:26:21.127Z,98655.25
2023-05-23T16:28:47.768Z,98658.53
2023-05-23T16:31:15.923Z,98650.72
2023-05-23T16:33:43.650Z,98649.72
2023-05-23T16:36:10.328Z,98654.94
2023-05-23T16:38:36.997Z,98655.72
2023-05-23T16:41:03.809Z,98654.22
2023-05-23T16:43:30.833Z,98658.28
2023-05-23T16:45:57.531Z,98659.38
2023-05-23T16:48:24.346Z,98658.78
2023-05-23T16:50:50.997Z,98657.88
2023-05-23T16:53:17.675Z,98657.06
2023-05-23T16:55:45.955Z,98659.75
2023-05-23T16:58:12.739Z,98657.97
2023-05-23T17:00:39.764Z,98654.88
2023-05-23T17:03:06.982Z,98665.88
2023-05-23T17:05:34.373Z,98671.56
2023-05-23T17:08:01.413Z,98683.09
2023-05-23T17:10:28.518Z,98694.56
2023-05-23T17:12:55.382Z,98690.88
2023-05-23T17:15:22.172Z,98678.59
2023-05-23T17:17:48.929Z,98691.75
2023-05-23T17:20:15.901Z,98689.84
2023-05-23T17:22:42.631Z,98689.72
2023-05-23T17:25:09.694Z,98688.72
2023-05-23T17:27:36.431Z,98692.84
2023-05-23T17:30:05.317Z,98692.88
2023-05-23T17:32:32.103Z,98698.16
2023-05-23T17:34:58.828Z,98699.38
2023-05-23T17:37:26.631Z,98700.22
2023-05-23T17:39:55.932Z,98695.72
2023-05-23T17:42:24.228Z,98692.97
2023-05-23T17:44:50.898Z,98691.97
2023-05-23T17:47:18.655Z,98712.09
2023-05-23T17:49:45.419Z,98704.13
2023-05-23T17:52:15.170Z,98705.28
2023-05-23T17:54:42.516Z,98701.94
2023-05-23T17:57:09.245Z,98701.84
2023-05-23T17:59:36.588Z,98705.88
2023-05-23T18:02:04.938Z,98697.66
2023-05-23T18:04:31.830Z,98702.47
2023-05-23T18:06:58.729Z,98700.53
2023-05-23T18:09:25.421Z,98702.09
2023-05-23T18:11:51.968Z,98715.94
2023-05-23T18:14:18.692Z,98707.19
2023-05-23T18:16:45.608Z,98716.03
2023-05-23T18:19:12.454Z,98710.22
2023-05-23T18:21:39.273Z,98711.72
2023-05-23T18:24:06.129Z,98708.31
2023-05-23T18:26:32.846Z,98715.41
2023-05-23T18:29:01.109Z,98712.81
2023-05-23T18:31:27.747Z,98710.19
2023-05-23T18:33:54.489Z,98712.16
2023-05-23T18:36:21.317Z,98714.72
2023-05-23T18:38:48.079Z,98720.81
2023-05-23T18:41:15.347Z,98719.09
2023-05-23T18:43:42.071Z,98714.03
2023-05-23T18:46:10.002Z,98722.78
2023-05-23T18:48:36.896Z,98718.44
2023-05-23T18:51:03.567Z,98715.91
2023-05-23T18:53:30.322Z,98728.38
2023-05-23T18:55:57.084Z,98728.59
2023-05-23T18:58:23.781Z,98736.03
2023-05-23T19:00:50.544Z,98743.91
2023-05-23T19:03:17.773Z,98745.59
2023-05-23T19:05:44.613Z,98738.88
2023-05-23T19:08:11.348Z,98741.75
2023-05-23T19:10:37.999Z,98754.09
2023-05-23T19:13:04.594Z,98760.31
2023-05-23T19:15:31.352Z,98762.78
2023-05-23T19:17:58.098Z,98768.25
2023-05-23T19:20:24.753Z,98773.63
2023-05-23T19:22:52.552Z,98779.06
2023-05-23T19:25:20.785Z,98783.59
2023-05-23T19:27:47.434Z,98781.13
2023-05-23T19:30:14.146Z,98786.34
2023-05-23T19:32:41.000Z,98776.75
2023-05-23T19:35:08.509Z,98784.66
2023-05-23T19:37:35.310Z,98788.19
2023-05-23T19:40:02.084Z,98796.84
2023-05-23T19:42:28.846Z,98792.59
2023-05-23T19:44:55.537Z,98792.69
2023-05-23T19:47:22.136Z,98791.09
2023-05-23T19:49:48.952Z,98794.56
2023-05-23T19:52:15.637Z,98800.59
2023-05-23T19:54:42.318Z,98797.94
2023-05-23T19:57:08.909Z,98802.41
2023-05-23T19:59:35.480Z,98810.16
2023-05-23T20:02:02.138Z,98806.66
2023-05-23T20:04:28.912Z,98809.34
2023-05-23T20:06:56.197Z,98819.00
2023-05-23T20:09:23.024Z,98812.84
2023-05-23T20:11:49.641Z,98815.56
2023-05-23T20:14:16.552Z,98813.84
2023-05-23T20:16:43.175Z,98815.63
2023-05-23T20:19:10.195Z,98806.03
2023-05-23T20:21:37.031Z,98823.53
2023-05-23T20:24:03.808Z,98828.75
2023-05-23T20:26:30.374Z,98820.94
2023-05-23T20:28:57.123Z,98828.97
2023-05-23T20:31:23.875Z,98818.44
2023-05-23T20:33:52.468Z,98836.94
2023-05-23T20:36:21.083Z,98837.88
2023-05-23T20:38:48.109Z,98834.44
2023-05-23T20:41:14.995Z,98835.41
2023-05-23T20:43:41.812Z,98838.91
2023-05-23T20:46:11.863Z,98834.59
2023-05-23T20:48:38.877Z,98837.28
2023-05-23T20:51:06.159Z,98838.22
2023-05-23T20:53:33.150Z,98846.13
2023-05-23T20:56:00.610Z,98838.34
2023-05-23T20:58:27.653Z,98838.44
2023-05-23T21:00:54.654Z,98833.19
2023-05-23T21:03:21.885Z,98838.47
2023-05-23T21:05:48.469Z,98842.81
2023-05-23T21:08:15.124Z,98847.34
2023-05-23T21:10:41.963Z,98847.34
2023-05-23T21:13:08.800Z,98843.84
2023-05-23T21:15:35.504Z,98859.63
2023-05-23T21:18:02.207Z,98858.84
2023-05-23T21:20:29.338Z,98857.97
2023-05-23T21:22:56.037Z,98860.72
2023-05-23T21:25:22.921Z,98859.94
2023-05-23T21:27:49.487Z,98856.50
2023-05-23T21:30:16.255Z,98863.53
2023-05-23T21:32:43.662Z,98860.09
2023-05-23T21:35:10.722Z,98861.03
2023-05-23T21:37:37.380Z,98862.81
2023-05-23T21:40:04.569Z,98868.03
2023-05-23T21:42:31.319Z,98861.97
2023-05-23T21:44:58.064Z,98865.53
2023-05-23T21:47:25.275Z,98870.78
2023-05-23T21:49:52.000Z,98857.69
2023-05-23T21:52:18.687Z,98867.41
2023-05-23T21:54:47.162Z,98860.41
2023-05-23T21:57:13.849Z,98870.06
2023-05-23T21:59:41.682Z,98872.69
2023-05-23T22:02:08.700Z,98883.22
2023-05-23T22:04:35.932Z,98879.63
2023-05-23T22:07:02.625Z,98875.34
2023-05-23T22:09:29.502Z,98871.06
2023-05-23T22:11:56.727Z,98880.69
2023-05-23T22:14:23.350Z,98869.44
2023-05-23T22:16:50.447Z,98877.28
2023-05-23T22:19:21.137Z,98879.91
2023-05-23T22:21:48.037Z,98874.59
2023-05-23T22:24:14.815Z,98877.09
2023-05-23T22:26:41.547Z,98878.84
2023-05-23T22:29:08.231Z,98874.50
2023-05-23T22:31:35.643Z,98864.06
2023-05-23T22:34:02.418Z,98867.53
2023-05-23T22:36:29.204Z,98870.16
2023-05-23T22:38:56.304Z,98870.19
2023-05-23T22:41:23.615Z,98867.56
2023-05-23T22:43:50.320Z,98872.81
2023-05-23T22:46:17.052Z,98872.91
2023-05-23T22:48:45.340Z,98872.94
2023-05-23T22:51:14.716Z,98874.78
2023-05-23T22:53:41.565Z,98878.34
2023-05-23T22:56:08.305Z,98883.56
2023-05-23T22:58:35.009Z,98866.09
2023-05-23T23:01:01.749Z,98871.38
2023-05-23T23:03:28.486Z,98874.94
2023-05-23T23:05:55.161Z,98876.66
2023-05-23T23:08:21.966Z,98871.59
2023-05-23T23:10:48.697Z,98873.28
2023-05-23T23:13:15.367Z,98872.41
2023-05-23T23:15:43.259Z,98875.91
2023-05-23T23:18:13.781Z,98876.78
2023-05-23T23:20:41.144Z,98882.91
2023-05-23T23:23:08.182Z,98884.78
2023-05-23T23:25:36.641Z,98880.47
2023-05-23T23:28:03.770Z,98892.75
2023-05-23T23:30:30.528Z,98884.81
2023-05-23T23:32:57.526Z,98883.97
2023-05-23T23:35:24.193Z,98887.56
2023-05-23T23:37:50.772Z,98891.06
2023-05-23T23:40:17.568Z,98888.50
2023-05-23T23:42:44.218Z,98881.56
2023-05-23T23:45:11.079Z,98878.91
2023-05-23T23:47:37.880Z,98877.19
2023-05-23T23:50:04.995Z,98878.84
2023-05-23T23:52:31.697Z,98880.66
2023-05-23T23:54:58.448Z,98874.53
2023-05-23T23:57:25.528Z,98878.03
2023-05-23T23:59:52.319Z,98870.16
